sensor_id;sensor_type;location;lat;lon;timestamp;temperature;humidity
65707;SHT31;52423;43.512;5.220;2023-03-22T00:00:34;11.14;78.75
65707;SHT31;52423;43.512;5.220;2023-03-22T00:02:59;11.07;78.58
65707;SHT31;52423;43.512;5.220;2023-03-22T00:05:25;11.08;78.76
65707;SHT31;52423;43.512;5.220;2023-03-22T00:07:50;11.12;79.20
65707;SHT31;52423;43.512;5.220;2023-03-22T00:10:18;11.08;78.71
65707;SHT31;52423;43.512;5.220;2023-03-22T00:12:44;10.97;78.95
65707;SHT31;52423;43.512;5.220;2023-03-22T00:15:09;10.92;79.16
65707;SHT31;52423;43.512;5.220;2023-03-22T00:17:35;10.98;79.00
65707;SHT31;52423;43.512;5.220;2023-03-22T00:20:02;10.88;79.31
65707;SHT31;52423;43.512;5.220;2023-03-22T00:22:33;10.80;79.38
65707;SHT31;52423;43.512;5.220;2023-03-22T00:24:58;10.78;79.42
65707;SHT31;52423;43.512;5.220;2023-03-22T00:27:23;10.80;79.23
65707;SHT31;52423;43.512;5.220;2023-03-22T00:29:52;10.74;79.77
65707;SHT31;52423;43.512;5.220;2023-03-22T00:32:17;10.60;80.03
65707;SHT31;52423;43.512;5.220;2023-03-22T00:34:43;10.51;80.30
65707;SHT31;52423;43.512;5.220;2023-03-22T00:37:08;10.50;80.50
65707;SHT31;52423;43.512;5.220;2023-03-22T00:39:33;10.59;80.45
65707;SHT31;52423;43.512;5.220;2023-03-22T00:41:59;10.67;80.32
65707;SHT31;52423;43.512;5.220;2023-03-22T00:44:25;10.63;80.01
65707;SHT31;52423;43.512;5.220;2023-03-22T00:46:50;10.59;79.93
65707;SHT31;52423;43.512;5.220;2023-03-22T00:49:15;10.51;80.25
65707;SHT31;52423;43.512;5.220;2023-03-22T00:51:41;10.42;80.53
65707;SHT31;52423;43.512;5.220;2023-03-22T00:54:06;10.36;80.75
65707;SHT31;52423;43.512;5.220;2023-03-22T00:56:32;10.32;80.75
65707;SHT31;52423;43.512;5.220;2023-03-22T00:58:58;10.24;80.79
65707;SHT31;52423;43.512;5.220;2023-03-22T01:01:24;10.14;81.01
65707;SHT31;52423;43.512;5.220;2023-03-22T01:03:49;10.16;81.25
65707;SHT31;52423;43.512;5.220;2023-03-22T01:06:15;10.01;81.58
65707;SHT31;52423;43.512;5.220;2023-03-22T01:08:41;9.99;81.69
65707;SHT31;52423;43.512;5.220;2023-03-22T01:11:08;9.95;81.85
65707;SHT31;52423;43.512;5.220;2023-03-22T01:13:34;9.82;82.09
65707;SHT31;52423;43.512;5.220;2023-03-22T01:16:04;9.83;82.10
65707;SHT31;52423;43.512;5.220;2023-03-22T01:18:30;9.79;82.81
65707;SHT31;52423;43.512;5.220;2023-03-22T01:20:55;9.74;82.34
65707;SHT31;52423;43.512;5.220;2023-03-22T01:23:21;9.71;82.74
65707;SHT31;52423;43.512;5.220;2023-03-22T01:25:46;9.67;82.92
65707;SHT31;52423;43.512;5.220;2023-03-22T01:28:11;9.64;82.93
65707;SHT31;52423;43.512;5.220;2023-03-22T01:30:38;9.57;83.01
65707;SHT31;52423;43.512;5.220;2023-03-22T01:33:05;9.57;82.86
65707;SHT31;52423;43.512;5.220;2023-03-22T01:35:32;9.58;82.98
65707;SHT31;52423;43.512;5.220;2023-03-22T01:37:57;9.55;82.91
65707;SHT31;52423;43.512;5.220;2023-03-22T01:40:23;9.62;82.87
65707;SHT31;52423;43.512;5.220;2023-03-22T01:42:48;9.62;83.02
65707;SHT31;52423;43.512;5.220;2023-03-22T01:48:01;9.62;82.94
65707;SHT31;52423;43.512;5.220;2023-03-22T01:50:27;9.67;82.35
65707;SHT31;52423;43.512;5.220;2023-03-22T01:52:54;9.51;82.27
65707;SHT31;52423;43.512;5.220;2023-03-22T01:55:22;9.52;83.05
65707;SHT31;52423;43.512;5.220;2023-03-22T01:57:49;9.48;82.34
65707;SHT31;52423;43.512;5.220;2023-03-22T02:00:16;9.44;83.39
65707;SHT31;52423;43.512;5.220;2023-03-22T02:02:45;9.41;82.80
65707;SHT31;52423;43.512;5.220;2023-03-22T02:05:12;9.41;82.83
65707;SHT31;52423;43.512;5.220;2023-03-22T02:07:40;9.28;83.39
65707;SHT31;52423;43.512;5.220;2023-03-22T02:10:10;9.35;83.45
65707;SHT31;52423;43.512;5.220;2023-03-22T02:20:56;9.37;83.16
65707;SHT31;52423;43.512;5.220;2023-03-22T02:37:25;9.34;83.22
65707;SHT31;52423;43.512;5.220;2023-03-22T02:42:51;9.03;84.23
65707;SHT31;52423;43.512;5.220;2023-03-22T02:45:25;9.10;84.01
65707;SHT31;52423;43.512;5.220;2023-03-22T02:48:07;9.00;84.02
65707;SHT31;52423;43.512;5.220;2023-03-22T02:50:40;8.97;84.07
65707;SHT31;52423;43.512;5.220;2023-03-22T02:55:49;9.00;84.33
65707;SHT31;52423;43.512;5.220;2023-03-22T02:58:22;8.99;84.52
65707;SHT31;52423;43.512;5.220;2023-03-22T03:00:53;9.04;84.56
65707;SHT31;52423;43.512;5.220;2023-03-22T03:03:20;9.09;84.37
65707;SHT31;52423;43.512;5.220;2023-03-22T03:05:53;9.06;84.21
65707;SHT31;52423;43.512;5.220;2023-03-22T03:08:21;9.04;84.31
65707;SHT31;52423;43.512;5.220;2023-03-22T03:10:48;9.26;84.15
65707;SHT31;52423;43.512;5.220;2023-03-22T03:13:16;9.06;83.67
65707;SHT31;52423;43.512;5.220;2023-03-22T03:15:43;8.84;84.12
65707;SHT31;52423;43.512;5.220;2023-03-22T03:23:34;9.13;84.04
65707;SHT31;52423;43.512;5.220;2023-03-22T03:28:51;9.14;84.03
65707;SHT31;52423;43.512;5.220;2023-03-22T03:33:56;9.10;83.97
65707;SHT31;52423;43.512;5.220;2023-03-22T03:36:24;9.04;83.88
65707;SHT31;52423;43.512;5.220;2023-03-22T03:38:51;9.01;83.92
65707;SHT31;52423;43.512;5.220;2023-03-22T03:41:24;9.01;84.11
65707;SHT31;52423;43.512;5.220;2023-03-22T03:43:53;8.96;83.84
65707;SHT31;52423;43.512;5.220;2023-03-22T03:46:20;8.89;84.33
65707;SHT31;52423;43.512;5.220;2023-03-22T03:48:47;8.90;84.00
65707;SHT31;52423;43.512;5.220;2023-03-22T03:51:14;8.89;84.30
65707;SHT31;52423;43.512;5.220;2023-03-22T03:53:39;8.89;84.34
65707;SHT31;52423;43.512;5.220;2023-03-22T03:56:05;8.86;84.47
65707;SHT31;52423;43.512;5.220;2023-03-22T03:58:31;8.89;84.20
65707;SHT31;52423;43.512;5.220;2023-03-22T04:00:56;8.82;84.00
65707;SHT31;52423;43.512;5.220;2023-03-22T04:03:21;8.77;84.32
65707;SHT31;52423;43.512;5.220;2023-03-22T04:05:47;8.75;84.27
65707;SHT31;52423;43.512;5.220;2023-03-22T04:08:12;8.76;84.26
65707;SHT31;52423;43.512;5.220;2023-03-22T04:10:38;8.68;84.16
65707;SHT31;52423;43.512;5.220;2023-03-22T04:13:03;8.61;84.24
65707;SHT31;52423;43.512;5.220;2023-03-22T04:15:29;8.66;84.23
65707;SHT31;52423;43.512;5.220;2023-03-22T04:17:55;8.72;84.08
65707;SHT31;52423;43.512;5.220;2023-03-22T04:20:21;8.66;84.24
65707;SHT31;52423;43.512;5.220;2023-03-22T04:22:47;8.63;84.14
65707;SHT31;52423;43.512;5.220;2023-03-22T04:25:14;8.63;83.98
65707;SHT31;52423;43.512;5.220;2023-03-22T04:27:42;8.65;83.97
65707;SHT31;52423;43.512;5.220;2023-03-22T04:30:11;8.68;83.90
65707;SHT31;52423;43.512;5.220;2023-03-22T04:32:37;8.68;83.94
65707;SHT31;52423;43.512;5.220;2023-03-22T04:35:04;8.63;84.10
65707;SHT31;52423;43.512;5.220;2023-03-22T04:37:29;8.68;83.77
65707;SHT31;52423;43.512;5.220;2023-03-22T04:39:58;8.63;84.10
65707;SHT31;52423;43.512;5.220;2023-03-22T04:42:24;8.68;83.95
65707;SHT31;52423;43.512;5.220;2023-03-22T04:44:50;8.62;84.00
65707;SHT31;52423;43.512;5.220;2023-03-22T04:47:15;8.55;83.94
65707;SHT31;52423;43.512;5.220;2023-03-22T04:49:42;8.56;83.73
65707;SHT31;52423;43.512;5.220;2023-03-22T04:52:07;8.52;83.85
65707;SHT31;52423;43.512;5.220;2023-03-22T04:54:33;8.53;83.87
65707;SHT31;52423;43.512;5.220;2023-03-22T04:56:58;8.61;83.39
65707;SHT31;52423;43.512;5.220;2023-03-22T04:59:25;8.53;83.49
65707;SHT31;52423;43.512;5.220;2023-03-22T05:01:50;8.51;83.53
65707;SHT31;52423;43.512;5.220;2023-03-22T05:04:17;8.59;83.38
65707;SHT31;52423;43.512;5.220;2023-03-22T05:06:42;8.65;83.33
65707;SHT31;52423;43.512;5.220;2023-03-22T05:09:09;8.68;83.26
65707;SHT31;52423;43.512;5.220;2023-03-22T05:11:35;8.62;83.22
65707;SHT31;52423;43.512;5.220;2023-03-22T05:14:01;8.62;83.03
65707;SHT31;52423;43.512;5.220;2023-03-22T05:16:26;8.65;82.96
65707;SHT31;52423;43.512;5.220;2023-03-22T05:18:52;8.62;82.97
65707;SHT31;52423;43.512;5.220;2023-03-22T05:21:22;8.56;83.25
65707;SHT31;52423;43.512;5.220;2023-03-22T05:23:56;8.52;83.18
65707;SHT31;52423;43.512;5.220;2023-03-22T05:26:23;8.55;83.22
65707;SHT31;52423;43.512;5.220;2023-03-22T05:28:51;8.59;82.83
65707;SHT31;52423;43.512;5.220;2023-03-22T05:31:17;8.59;83.02
65707;SHT31;52423;43.512;5.220;2023-03-22T05:33:46;8.59;82.59
65707;SHT31;52423;43.512;5.220;2023-03-22T05:36:12;8.58;82.66
65707;SHT31;52423;43.512;5.220;2023-03-22T05:38:38;8.58;82.62
65707;SHT31;52423;43.512;5.220;2023-03-22T05:41:03;8.53;82.96
65707;SHT31;52423;43.512;5.220;2023-03-22T05:43:29;8.53;82.60
65707;SHT31;52423;43.512;5.220;2023-03-22T05:45:55;8.49;82.51
65707;SHT31;52423;43.512;5.220;2023-03-22T05:48:20;8.51;82.50
65707;SHT31;52423;43.512;5.220;2023-03-22T05:50:46;8.45;82.67
65707;SHT31;52423;43.512;5.220;2023-03-22T05:53:11;8.44;82.58
65707;SHT31;52423;43.512;5.220;2023-03-22T05:55:37;8.35;82.80
65707;SHT31;52423;43.512;5.220;2023-03-22T05:58:03;8.39;82.87
65707;SHT31;52423;43.512;5.220;2023-03-22T06:00:30;8.45;82.85
65707;SHT31;52423;43.512;5.220;2023-03-22T06:02:58;8.53;82.22
65707;SHT31;52423;43.512;5.220;2023-03-22T06:05:29;8.65;82.48
65707;SHT31;52423;43.512;5.220;2023-03-22T06:07:56;8.68;82.13
65707;SHT31;52423;43.512;5.220;2023-03-22T06:10:21;8.75;81.98
65707;SHT31;52423;43.512;5.220;2023-03-22T06:12:48;8.76;81.73
65707;SHT31;52423;43.512;5.220;2023-03-22T06:15:14;8.80;82.16
65707;SHT31;52423;43.512;5.220;2023-03-22T06:17:40;8.90;82.09
65707;SHT31;52423;43.512;5.220;2023-03-22T06:20:07;8.96;81.74
65707;SHT31;52423;43.512;5.220;2023-03-22T06:22:36;8.97;81.24
65707;SHT31;52423;43.512;5.220;2023-03-22T06:25:03;9.04;81.33
65707;SHT31;52423;43.512;5.220;2023-03-22T06:27:28;9.07;81.51
65707;SHT31;52423;43.512;5.220;2023-03-22T06:29:54;9.11;80.87
65707;SHT31;52423;43.512;5.220;2023-03-22T06:32:20;9.21;81.15
65707;SHT31;52423;43.512;5.220;2023-03-22T06:34:57;9.20;80.76
65707;SHT31;52423;43.512;5.220;2023-03-22T06:37:22;9.24;80.46
65707;SHT31;52423;43.512;5.220;2023-03-22T06:39:48;9.34;80.16
65707;SHT31;52423;43.512;5.220;2023-03-22T06:42:15;9.42;80.17
65707;SHT31;52423;43.512;5.220;2023-03-22T06:44:40;9.52;79.94
65707;SHT31;52423;43.512;5.220;2023-03-22T06:47:08;9.64;79.82
65707;SHT31;52423;43.512;5.220;2023-03-22T06:49:34;9.71;79.47
65707;SHT31;52423;43.512;5.220;2023-03-22T06:51:59;9.79;79.32
65707;SHT31;52423;43.512;5.220;2023-03-22T06:54:24;9.93;78.63
65707;SHT31;52423;43.512;5.220;2023-03-22T06:56:50;10.08;78.21
65707;SHT31;52423;43.512;5.220;2023-03-22T06:59:15;10.19;78.46
65707;SHT31;52423;43.512;5.220;2023-03-22T07:01:41;10.32;77.17
65707;SHT31;52423;43.512;5.220;2023-03-22T07:04:06;10.49;76.89
65707;SHT31;52423;43.512;5.220;2023-03-22T07:06:32;10.68;76.57
65707;SHT31;52423;43.512;5.220;2023-03-22T07:08:58;10.81;75.94
65707;SHT31;52423;43.512;5.220;2023-03-22T07:11:23;10.95;75.64
65707;SHT31;52423;43.512;5.220;2023-03-22T07:13:51;11.07;75.40
65707;SHT31;52423;43.512;5.220;2023-03-22T07:16:17;11.29;74.95
65707;SHT31;52423;43.512;5.220;2023-03-22T07:18:42;11.31;74.63
65707;SHT31;52423;43.512;5.220;2023-03-22T07:21:07;11.42;74.65
65707;SHT31;52423;43.512;5.220;2023-03-22T07:23:33;11.49;73.63
65707;SHT31;52423;43.512;5.220;2023-03-22T07:25:59;11.56;73.53
65707;SHT31;52423;43.512;5.220;2023-03-22T07:28:25;11.56;73.28
65707;SHT31;52423;43.512;5.220;2023-03-22T07:31:01;11.79;73.20
65707;SHT31;52423;43.512;5.220;2023-03-22T07:33:28;11.87;72.79
65707;SHT31;52423;43.512;5.220;2023-03-22T07:35:54;11.98;72.21
65707;SHT31;52423;43.512;5.220;2023-03-22T07:38:20;12.05;71.75
65707;SHT31;52423;43.512;5.220;2023-03-22T07:40:45;12.20;71.61
65707;SHT31;52423;43.512;5.220;2023-03-22T07:43:10;12.34;71.24
65707;SHT31;52423;43.512;5.220;2023-03-22T07:45:37;12.46;70.58
65707;SHT31;52423;43.512;5.220;2023-03-22T07:48:03;12.68;69.31
65707;SHT31;52423;43.512;5.220;2023-03-22T07:50:28;12.82;69.45
65707;SHT31;52423;43.512;5.220;2023-03-22T07:52:54;13.07;69.90
65707;SHT31;52423;43.512;5.220;2023-03-22T07:55:19;13.13;68.54
65707;SHT31;52423;43.512;5.220;2023-03-22T07:57:45;13.39;70.29
65707;SHT31;52423;43.512;5.220;2023-03-22T08:00:10;13.63;69.21
65707;SHT31;52423;43.512;5.220;2023-03-22T08:02:36;13.78;68.78
65707;SHT31;52423;43.512;5.220;2023-03-22T08:05:03;14.02;68.88
65707;SHT31;52423;43.512;5.220;2023-03-22T08:07:29;14.13;67.16
65707;SHT31;52423;43.512;5.220;2023-03-22T08:09:56;14.29;68.12
65707;SHT31;52423;43.512;5.220;2023-03-22T08:12:21;14.52;66.72
65707;SHT31;52423;43.512;5.220;2023-03-22T08:14:47;14.64;64.93
65707;SHT31;52423;43.512;5.220;2023-03-22T08:17:16;14.67;64.38
65707;SHT31;52423;43.512;5.220;2023-03-22T08:19:41;14.39;64.36
65707;SHT31;52423;43.512;5.220;2023-03-22T08:22:07;14.46;64.86
65707;SHT31;52423;43.512;5.220;2023-03-22T08:24:32;14.69;65.63
65707;SHT31;52423;43.512;5.220;2023-03-22T08:26:58;14.88;66.67
65707;SHT31;52423;43.512;5.220;2023-03-22T08:29:23;15.17;65.24
65707;SHT31;52423;43.512;5.220;2023-03-22T08:31:50;15.28;65.30
65707;SHT31;52423;43.512;5.220;2023-03-22T08:34:16;15.39;64.34
65707;SHT31;52423;43.512;5.220;2023-03-22T08:36:41;15.42;64.53
65707;SHT31;52423;43.512;5.220;2023-03-22T08:39:07;15.69;63.97
65707;SHT31;52423;43.512;5.220;2023-03-22T08:41:34;15.04;65.38
65707;SHT31;52423;43.512;5.220;2023-03-22T08:43:59;15.20;65.95
65707;SHT31;52423;43.512;5.220;2023-03-22T08:46:25;15.20;63.78
65707;SHT31;52423;43.512;5.220;2023-03-22T08:48:51;14.83;65.73
65707;SHT31;52423;43.512;5.220;2023-03-22T08:51:18;15.12;66.00
65707;SHT31;52423;43.512;5.220;2023-03-22T08:53:44;15.12;66.67
65707;SHT31;52423;43.512;5.220;2023-03-22T08:56:10;15.21;66.07
65707;SHT31;52423;43.512;5.220;2023-03-22T08:58:35;15.17;67.32
65707;SHT31;52423;43.512;5.220;2023-03-22T09:01:01;15.22;66.08
65707;SHT31;52423;43.512;5.220;2023-03-22T09:03:26;15.18;65.56
65707;SHT31;52423;43.512;5.220;2023-03-22T09:05:52;15.21;65.77
65707;SHT31;52423;43.512;5.220;2023-03-22T09:08:17;15.34;65.57
65707;SHT31;52423;43.512;5.220;2023-03-22T09:10:43;15.39;66.17
65707;SHT31;52423;43.512;5.220;2023-03-22T09:13:12;15.59;63.93
65707;SHT31;52423;43.512;5.220;2023-03-22T09:15:39;15.56;64.78
65707;SHT31;52423;43.512;5.220;2023-03-22T09:18:04;15.86;64.58
65707;SHT31;52423;43.512;5.220;2023-03-22T09:20:29;15.76;62.18
65707;SHT31;52423;43.512;5.220;2023-03-22T09:22:55;15.87;63.43
65707;SHT31;52423;43.512;5.220;2023-03-22T09:25:21;16.17;58.72
65707;SHT31;52423;43.512;5.220;2023-03-22T09:27:46;16.24;58.29
65707;SHT31;52423;43.512;5.220;2023-03-22T09:30:12;15.97;59.13
65707;SHT31;52423;43.512;5.220;2023-03-22T09:32:37;16.07;59.71
65707;SHT31;52423;43.512;5.220;2023-03-22T09:35:03;16.64;61.62
65707;SHT31;52423;43.512;5.220;2023-03-22T09:37:28;16.72;58.30
65707;SHT31;52423;43.512;5.220;2023-03-22T09:39:55;16.96;56.70
65707;SHT31;52423;43.512;5.220;2023-03-22T09:42:30;16.74;57.32
65707;SHT31;52423;43.512;5.220;2023-03-22T09:44:57;16.57;56.98
65707;SHT31;52423;43.512;5.220;2023-03-22T09:47:39;16.67;58.91
65707;SHT31;52423;43.512;5.220;2023-03-22T09:50:24;16.76;58.42
65707;SHT31;52423;43.512;5.220;2023-03-22T09:52:49;16.71;57.20
65707;SHT31;52423;43.512;5.220;2023-03-22T09:55:21;16.69;57.73
65707;SHT31;52423;43.512;5.220;2023-03-22T09:57:57;16.68;55.73
65707;SHT31;52423;43.512;5.220;2023-03-22T10:00:47;16.89;55.08
65707;SHT31;52423;43.512;5.220;2023-03-22T10:03:18;16.76;55.86
65707;SHT31;52423;43.512;5.220;2023-03-22T10:05:50;17.01;55.47
65707;SHT31;52423;43.512;5.220;2023-03-22T10:10:58;17.27;54.26
65707;SHT31;52423;43.512;5.220;2023-03-22T10:16:03;17.74;54.47
65707;SHT31;52423;43.512;5.220;2023-03-22T10:18:36;17.36;52.09
65707;SHT31;52423;43.512;5.220;2023-03-22T10:23:37;17.98;52.90
65707;SHT31;52423;43.512;5.220;2023-03-22T10:26:05;17.91;51.31
65707;SHT31;52423;43.512;5.220;2023-03-22T10:28:39;17.94;52.88
65707;SHT31;52423;43.512;5.220;2023-03-22T10:31:12;17.60;54.76
65707;SHT31;52423;43.512;5.220;2023-03-22T10:33:41;17.75;54.15
65707;SHT31;52423;43.512;5.220;2023-03-22T10:36:14;17.78;55.25
65707;SHT31;52423;43.512;5.220;2023-03-22T10:39:12;18.11;54.69
65707;SHT31;52423;43.512;5.220;2023-03-22T10:41:41;18.02;56.01
65707;SHT31;52423;43.512;5.220;2023-03-22T10:44:07;17.88;57.37
65707;SHT31;52423;43.512;5.220;2023-03-22T10:46:37;18.22;57.33
65707;SHT31;52423;43.512;5.220;2023-03-22T10:49:03;18.22;56.69
65707;SHT31;52423;43.512;5.220;2023-03-22T10:51:34;18.21;55.57
65707;SHT31;52423;43.512;5.220;2023-03-22T10:54:01;18.51;57.22
65707;SHT31;52423;43.512;5.220;2023-03-22T10:56:27;18.52;53.40
65707;SHT31;52423;43.512;5.220;2023-03-22T10:58:54;18.01;55.96
65707;SHT31;52423;43.512;5.220;2023-03-22T11:01:29;18.08;55.88
65707;SHT31;52423;43.512;5.220;2023-03-22T11:04:15;18.02;55.96
65707;SHT31;52423;43.512;5.220;2023-03-22T11:06:49;18.38;57.83
65707;SHT31;52423;43.512;5.220;2023-03-22T11:09:17;18.21;57.11
65707;SHT31;52423;43.512;5.220;2023-03-22T11:11:54;18.35;57.00
65707;SHT31;52423;43.512;5.220;2023-03-22T11:14:34;18.51;58.36
65707;SHT31;52423;43.512;5.220;2023-03-22T11:17:17;18.59;56.98
65707;SHT31;52423;43.512;5.220;2023-03-22T11:19:56;18.42;56.50
65707;SHT31;52423;43.512;5.220;2023-03-22T11:22:34;18.48;56.02
65707;SHT31;52423;43.512;5.220;2023-03-22T11:25:01;18.49;56.41
65707;SHT31;52423;43.512;5.220;2023-03-22T11:27:29;18.41;55.32
65707;SHT31;52423;43.512;5.220;2023-03-22T11:29:59;18.19;57.87
65707;SHT31;52423;43.512;5.220;2023-03-22T11:32:36;18.12;56.39
65707;SHT31;52423;43.512;5.220;2023-03-22T11:37:44;18.24;56.96
65707;SHT31;52423;43.512;5.220;2023-03-22T11:40:24;17.85;56.60
65707;SHT31;52423;43.512;5.220;2023-03-22T11:42:54;18.22;57.99
65707;SHT31;52423;43.512;5.220;2023-03-22T11:45:26;18.60;55.96
65707;SHT31;52423;43.512;5.220;2023-03-22T11:47:52;18.59;56.50
65707;SHT31;52423;43.512;5.220;2023-03-22T11:50:27;18.55;56.00
65707;SHT31;52423;43.512;5.220;2023-03-22T11:52:53;18.31;56.65
65707;SHT31;52423;43.512;5.220;2023-03-22T11:55:21;18.49;56.89
65707;SHT31;52423;43.512;5.220;2023-03-22T11:57:47;18.57;57.53
65707;SHT31;52423;43.512;5.220;2023-03-22T12:00:20;18.69;56.19
65707;SHT31;52423;43.512;5.220;2023-03-22T12:05:40;18.70;56.38
65707;SHT31;52423;43.512;5.220;2023-03-22T12:08:19;18.51;54.48
65707;SHT31;52423;43.512;5.220;2023-03-22T12:10:52;18.51;58.08
65707;SHT31;52423;43.512;5.220;2023-03-22T12:13:25;18.62;57.01
65707;SHT31;52423;43.512;5.220;2023-03-22T12:15:57;18.74;55.85
65707;SHT31;52423;43.512;5.220;2023-03-22T12:20:58;19.04;58.57
65707;SHT31;52423;43.512;5.220;2023-03-22T12:23:27;18.97;58.22
65707;SHT31;52423;43.512;5.220;2023-03-22T12:28:32;18.99;60.49
65707;SHT31;52423;43.512;5.220;2023-03-22T12:30:59;18.62;59.92
65707;SHT31;52423;43.512;5.220;2023-03-22T12:35:55;18.73;60.53
65707;SHT31;52423;43.512;5.220;2023-03-22T12:38:44;18.82;60.23
65707;SHT31;52423;43.512;5.220;2023-03-22T12:41:14;18.86;60.38
65707;SHT31;52423;43.512;5.220;2023-03-22T12:44:01;18.59;61.22
65707;SHT31;52423;43.512;5.220;2023-03-22T12:46:32;18.53;62.01
65707;SHT31;52423;43.512;5.220;2023-03-22T12:51:47;18.63;61.69
65707;SHT31;52423;43.512;5.220;2023-03-22T12:54:16;18.42;61.05
65707;SHT31;52423;43.512;5.220;2023-03-22T12:56:44;18.45;60.61
65707;SHT31;52423;43.512;5.220;2023-03-22T12:59:17;18.52;61.53
65707;SHT31;52423;43.512;5.220;2023-03-22T13:04:48;18.53;58.34
65707;SHT31;52423;43.512;5.220;2023-03-22T13:07:34;18.39;59.42
65707;SHT31;52423;43.512;5.220;2023-03-22T13:26:41;18.32;60.22
65707;SHT31;52423;43.512;5.220;2023-03-22T13:29:24;18.43;60.60
65707;SHT31;52423;43.512;5.220;2023-03-22T13:32:04;18.76;60.08
65707;SHT31;52423;43.512;5.220;2023-03-22T13:34:31;18.96;57.89
65707;SHT31;52423;43.512;5.220;2023-03-22T13:36:58;18.86;58.86
65707;SHT31;52423;43.512;5.220;2023-03-22T13:39:31;18.60;59.02
65707;SHT31;52423;43.512;5.220;2023-03-22T13:42:17;18.89;59.46
65707;SHT31;52423;43.512;5.220;2023-03-22T13:44:42;18.70;57.77
65707;SHT31;52423;43.512;5.220;2023-03-22T13:47:43;18.82;59.22
65707;SHT31;52423;43.512;5.220;2023-03-22T13:50:17;18.84;58.26
65707;SHT31;52423;43.512;5.220;2023-03-22T13:52:57;18.55;58.28
65707;SHT31;52423;43.512;5.220;2023-03-22T13:58:32;18.39;59.51
65707;SHT31;52423;43.512;5.220;2023-03-22T14:01:02;18.19;59.95
65707;SHT31;52423;43.512;5.220;2023-03-22T14:03:31;18.41;60.10
65707;SHT31;52423;43.512;5.220;2023-03-22T14:06:08;18.05;60.20
65707;SHT31;52423;43.512;5.220;2023-03-22T14:08:36;18.19;59.72
65707;SHT31;52423;43.512;5.220;2023-03-22T14:11:27;18.16;59.81
65707;SHT31;52423;43.512;5.220;2023-03-22T14:14:01;18.26;59.60
65707;SHT31;52423;43.512;5.220;2023-03-22T14:16:39;18.22;59.60
65707;SHT31;52423;43.512;5.220;2023-03-22T14:19:07;18.36;58.98
65707;SHT31;52423;43.512;5.220;2023-03-22T14:21:38;18.36;59.40
65707;SHT31;52423;43.512;5.220;2023-03-22T14:24:06;18.48;58.70
65707;SHT31;52423;43.512;5.220;2023-03-22T14:26:37;18.51;57.78
65707;SHT31;52423;43.512;5.220;2023-03-22T14:29:08;18.31;58.15
65707;SHT31;52423;43.512;5.220;2023-03-22T14:31:34;18.12;58.36
65707;SHT31;52423;43.512;5.220;2023-03-22T14:34:02;18.25;58.78
65707;SHT31;52423;43.512;5.220;2023-03-22T14:36:33;18.26;58.92
65707;SHT31;52423;43.512;5.220;2023-03-22T14:39:06;18.38;59.69
65707;SHT31;52423;43.512;5.220;2023-03-22T14:41:32;18.65;58.59
65707;SHT31;52423;43.512;5.220;2023-03-22T14:44:00;18.56;57.74
65707;SHT31;52423;43.512;5.220;2023-03-22T14:46:36;18.62;58.03
65707;SHT31;52423;43.512;5.220;2023-03-22T14:49:02;18.28;59.15
65707;SHT31;52423;43.512;5.220;2023-03-22T14:51:34;18.02;60.26
65707;SHT31;52423;43.512;5.220;2023-03-22T14:54:04;18.46;59.68
65707;SHT31;52423;43.512;5.220;2023-03-22T14:56:34;18.12;58.78
65707;SHT31;52423;43.512;5.220;2023-03-22T14:59:04;18.25;59.67
65707;SHT31;52423;43.512;5.220;2023-03-22T15:01:39;18.29;58.43
65707;SHT31;52423;43.512;5.220;2023-03-22T15:04:08;18.12;58.11
65707;SHT31;52423;43.512;5.220;2023-03-22T15:06:41;18.04;59.91
65707;SHT31;52423;43.512;5.220;2023-03-22T15:09:09;17.84;58.46
65707;SHT31;52423;43.512;5.220;2023-03-22T15:11:36;17.98;57.54
65707;SHT31;52423;43.512;5.220;2023-03-22T15:14:07;17.85;59.62
65707;SHT31;52423;43.512;5.220;2023-03-22T15:16:35;17.71;59.48
65707;SHT31;52423;43.512;5.220;2023-03-22T15:19:02;17.67;61.20
65707;SHT31;52423;43.512;5.220;2023-03-22T15:21:29;17.33;58.90
65707;SHT31;52423;43.512;5.220;2023-03-22T15:23:56;17.49;60.41
65707;SHT31;52423;43.512;5.220;2023-03-22T15:26:36;17.42;61.23
65707;SHT31;52423;43.512;5.220;2023-03-22T15:29:05;17.34;61.14
65707;SHT31;52423;43.512;5.220;2023-03-22T15:31:39;17.06;61.81
65707;SHT31;52423;43.512;5.220;2023-03-22T15:34:15;17.11;61.33
65707;SHT31;52423;43.512;5.220;2023-03-22T15:36:44;16.86;61.18
65707;SHT31;52423;43.512;5.220;2023-03-22T15:39:20;16.84;62.14
65707;SHT31;52423;43.512;5.220;2023-03-22T15:41:55;16.89;61.56
65707;SHT31;52423;43.512;5.220;2023-03-22T15:46:59;16.81;61.80
65707;SHT31;52423;43.512;5.220;2023-03-22T15:49:37;16.81;61.04
65707;SHT31;52423;43.512;5.220;2023-03-22T15:57:17;16.84;63.17
65707;SHT31;52423;43.512;5.220;2023-03-22T15:59:49;16.74;62.33
65707;SHT31;52423;43.512;5.220;2023-03-22T16:05:16;16.57;63.06
65707;SHT31;52423;43.512;5.220;2023-03-22T16:07:43;16.61;63.64
65707;SHT31;52423;43.512;5.220;2023-03-22T16:10:14;16.58;63.31
65707;SHT31;52423;43.512;5.220;2023-03-22T16:12:40;16.53;63.84
65707;SHT31;52423;43.512;5.220;2023-03-22T16:15:30;16.61;64.54
65707;SHT31;52423;43.512;5.220;2023-03-22T16:17:54;16.47;64.40
65707;SHT31;52423;43.512;5.220;2023-03-22T16:20:20;16.45;62.13
65707;SHT31;52423;43.512;5.220;2023-03-22T16:22:47;16.50;62.98
65707;SHT31;52423;43.512;5.220;2023-03-22T16:25:17;16.53;62.40
65707;SHT31;52423;43.512;5.220;2023-03-22T16:27:43;16.40;62.44
65707;SHT31;52423;43.512;5.220;2023-03-22T16:30:09;16.33;61.51
65707;SHT31;52423;43.512;5.220;2023-03-22T16:32:35;16.13;62.26
65707;SHT31;52423;43.512;5.220;2023-03-22T16:35:00;16.06;62.76
65707;SHT31;52423;43.512;5.220;2023-03-22T16:37:25;15.94;64.33
65707;SHT31;52423;43.512;5.220;2023-03-22T16:39:52;15.76;64.56
65707;SHT31;52423;43.512;5.220;2023-03-22T16:42:23;15.63;64.10
65707;SHT31;52423;43.512;5.220;2023-03-22T16:44:50;15.48;64.64
65707;SHT31;52423;43.512;5.220;2023-03-22T16:47:21;15.53;64.78
65707;SHT31;52423;43.512;5.220;2023-03-22T16:49:53;15.38;64.79
65707;SHT31;52423;43.512;5.220;2023-03-22T16:52:20;15.34;66.03
65707;SHT31;52423;43.512;5.220;2023-03-22T16:54:48;15.24;66.58
65707;SHT31;52423;43.512;5.220;2023-03-22T16:57:16;15.17;66.39
65707;SHT31;52423;43.512;5.220;2023-03-22T16:59:42;15.25;66.29
65707;SHT31;52423;43.512;5.220;2023-03-22T17:02:13;15.20;64.50
65707;SHT31;52423;43.512;5.220;2023-03-22T17:04:39;15.17;62.99
65707;SHT31;52423;43.512;5.220;2023-03-22T17:07:29;15.14;62.80
65707;SHT31;52423;43.512;5.220;2023-03-22T17:09:55;15.14;62.55
65707;SHT31;52423;43.512;5.220;2023-03-22T17:12:24;15.17;62.93
65707;SHT31;52423;43.512;5.220;2023-03-22T17:14:50;15.18;61.43
65707;SHT31;52423;43.512;5.220;2023-03-22T17:17:16;15.12;61.75
65707;SHT31;52423;43.512;5.220;2023-03-22T17:19:43;15.05;58.68
65707;SHT31;52423;43.512;5.220;2023-03-22T17:22:09;15.01;57.79